Currently 87°F in Simi Valley, California, USA
87°F
87°F / 79°F
20 mph E
0.00"
Monday, October 23, 2017 10:12 AM PDT

Simi Valley, California Climate Summary
Typical January Day

Normal High:    67.1°F (19.5°C)
Normal Low:    48.6°F (9.2°C)
Average:    57.4°F (14.1°C)

Hour    Temperature    Wind Speed    Humidity
12:00 AM    54°F (12°C)    4 mph    56%
1:00 AM    53°F (12°C)    4 mph    56%
2:00 AM    53°F (12°C)    5 mph    57%
3:00 AM    53°F (11°C)    5 mph    57%
4:00 AM    52°F (11°C)    5 mph    57%
5:00 AM    52°F (11°C)    5 mph    57%
6:00 AM    52°F (11°C)    5 mph    58%
7:00 AM    52°F (11°C)    5 mph    58%
8:00 AM    53°F (11°C)    5 mph    58%
9:00 AM    56°F (14°C)    5 mph    55%
10:00 AM    60°F (16°C)    5 mph    50%
11:00 AM    63°F (17°C)    6 mph    45%
12:00 PM    65°F (18°C)    6 mph    42%
1:00 PM    66°F (19°C)    6 mph    41%
2:00 PM    66°F (19°C)    6 mph    40%
3:00 PM    66°F (19°C)    6 mph    42%
4:00 PM    64°F (18°C)    5 mph    44%
5:00 PM    62°F (17°C)    5 mph    48%
6:00 PM    59°F (15°C)    4 mph    51%
7:00 PM    58°F (14°C)    4 mph    53%
8:00 PM    56°F (14°C)    4 mph    54%
9:00 PM    55°F (13°C)    5 mph    55%
10:00 PM    55°F (13°C)    5 mph    55%
11:00 PM    54°F (12°C)    4 mph    55%
 

The Simi Valley, California weather pages are a service of WeatherCurrents.
Copyright ©Mon Oct 23 10:13:13 PDT 2017  WeatherCurrents. All rights reserved. - Submit questions and comments - Privacy Policy